sensor_id;sensor_type;location;lat;lon;timestamp;temperature;humidity
68842;SHT35;55849;48.482;2.332;2023-02-22T05:35:05;10.00;68.37
68842;SHT35;55849;48.482;2.332;2023-02-22T05:38:10;10.00;68.50
68842;SHT35;55849;48.482;2.332;2023-02-22T05:41:14;9.98;68.46
68842;SHT35;55849;48.482;2.332;2023-02-22T05:44:15;10.00;68.41
68842;SHT35;55849;48.482;2.332;2023-02-22T05:47:17;10.00;68.52
68842;SHT35;55849;48.482;2.332;2023-02-22T05:50:20;9.95;68.72
68842;SHT35;55849;48.482;2.332;2023-02-22T05:53:22;9.95;68.88
68842;SHT35;55849;48.482;2.332;2023-02-22T05:56:26;9.97;69.10
68842;SHT35;55849;48.482;2.332;2023-02-22T05:59:29;9.97;68.93
68842;SHT35;55849;48.482;2.332;2023-02-22T06:02:31;9.94;68.84
68842;SHT35;55849;48.482;2.332;2023-02-22T06:05:34;10.00;68.81
68842;SHT35;55849;48.482;2.332;2023-02-22T06:08:36;9.98;69.44
68842;SHT35;55849;48.482;2.332;2023-02-22T06:11:39;10.00;69.16
68842;SHT35;55849;48.482;2.332;2023-02-22T06:14:41;10.03;70.25
68842;SHT35;55849;48.482;2.332;2023-02-22T06:17:45;10.04;71.34
68842;SHT35;55849;48.482;2.332;2023-02-22T06:20:48;10.05;72.38
68842;SHT35;55849;48.482;2.332;2023-02-22T06:23:50;10.11;73.00
68842;SHT35;55849;48.482;2.332;2023-02-22T06:26:54;10.19;73.12
68842;SHT35;55849;48.482;2.332;2023-02-22T06:29:56;10.27;73.92
68842;SHT35;55849;48.482;2.332;2023-02-22T06:32:58;10.31;74.83
68842;SHT35;55849;48.482;2.332;2023-02-22T06:36:01;10.35;74.87
68842;SHT35;55849;48.482;2.332;2023-02-22T06:39:02;10.41;75.45
68842;SHT35;55849;48.482;2.332;2023-02-22T06:42:04;10.46;75.80
68842;SHT35;55849;48.482;2.332;2023-02-22T06:45:07;10.50;75.90
68842;SHT35;55849;48.482;2.332;2023-02-22T06:48:09;10.57;75.75
68842;SHT35;55849;48.482;2.332;2023-02-22T06:51:12;10.62;75.83
68842;SHT35;55849;48.482;2.332;2023-02-22T06:54:13;10.67;75.20
68842;SHT35;55849;48.482;2.332;2023-02-22T06:57:16;10.71;76.03
68842;SHT35;55849;48.482;2.332;2023-02-22T07:00:19;10.76;75.91
68842;SHT35;55849;48.482;2.332;2023-02-22T07:03:21;10.81;76.20
68842;SHT35;55849;48.482;2.332;2023-02-22T07:06:24;10.85;76.74
68842;SHT35;55849;48.482;2.332;2023-02-22T07:09:25;10.88;76.58
68842;SHT35;55849;48.482;2.332;2023-02-22T07:12:27;10.93;76.32
68842;SHT35;55849;48.482;2.332;2023-02-22T07:15:30;10.97;76.91
68842;SHT35;55849;48.482;2.332;2023-02-22T07:18:32;11.00;77.02
68842;SHT35;55849;48.482;2.332;2023-02-22T07:21:35;11.03;77.22
68842;SHT35;55849;48.482;2.332;2023-02-22T07:24:36;11.03;77.18
68842;SHT35;55849;48.482;2.332;2023-02-22T07:27:41;11.07;77.41
68842;SHT35;55849;48.482;2.332;2023-02-22T07:30:43;11.05;77.51
68842;SHT35;55849;48.482;2.332;2023-02-22T07:33:45;11.08;77.46
68842;SHT35;55849;48.482;2.332;2023-02-22T07:36:48;11.10;77.31
68842;SHT35;55849;48.482;2.332;2023-02-22T07:39:50;11.12;77.42
68842;SHT35;55849;48.482;2.332;2023-02-22T07:42:54;11.14;77.17
68842;SHT35;55849;48.482;2.332;2023-02-22T07:45:58;11.18;77.28
68842;SHT35;55849;48.482;2.332;2023-02-22T07:49:02;11.18;77.30
68842;SHT35;55849;48.482;2.332;2023-02-22T07:52:05;11.18;77.25
68842;SHT35;55849;48.482;2.332;2023-02-22T07:55:07;11.19;77.15
68842;SHT35;55849;48.482;2.332;2023-02-22T07:58:12;11.19;77.10
68842;SHT35;55849;48.482;2.332;2023-02-22T08:01:14;11.23;77.07
68842;SHT35;55849;48.482;2.332;2023-02-22T08:04:15;11.28;77.11
68842;SHT35;55849;48.482;2.332;2023-02-22T08:07:18;11.28;77.03
68842;SHT35;55849;48.482;2.332;2023-02-22T08:10:22;11.31;77.13
68842;SHT35;55849;48.482;2.332;2023-02-22T08:13:24;11.35;76.93
68842;SHT35;55849;48.482;2.332;2023-02-22T08:16:26;11.39;76.89
68842;SHT35;55849;48.482;2.332;2023-02-22T08:19:27;11.40;76.84
68842;SHT35;55849;48.482;2.332;2023-02-22T08:22:30;11.39;76.88
68842;SHT35;55849;48.482;2.332;2023-02-22T08:25:32;11.44;76.71
68842;SHT35;55849;48.482;2.332;2023-02-22T08:28:34;11.46;76.85
68842;SHT35;55849;48.482;2.332;2023-02-22T08:31:36;11.46;76.93
68842;SHT35;55849;48.482;2.332;2023-02-22T08:34:37;11.49;76.73
68842;SHT35;55849;48.482;2.332;2023-02-22T08:37:42;11.49;76.83
68842;SHT35;55849;48.482;2.332;2023-02-22T08:40:44;11.47;76.88
68842;SHT35;55849;48.482;2.332;2023-02-22T08:43:47;11.50;76.82
68842;SHT35;55849;48.482;2.332;2023-02-22T08:46:49;11.49;76.74
68842;SHT35;55849;48.482;2.332;2023-02-22T08:49:51;11.52;76.57
68842;SHT35;55849;48.482;2.332;2023-02-22T08:52:56;11.53;76.75
68842;SHT35;55849;48.482;2.332;2023-02-22T08:55:58;11.56;76.60
68842;SHT35;55849;48.482;2.332;2023-02-22T08:59:00;11.59;76.24
68842;SHT35;55849;48.482;2.332;2023-02-22T09:02:02;11.59;76.48
68842;SHT35;55849;48.482;2.332;2023-02-22T09:05:04;11.60;76.38
68842;SHT35;55849;48.482;2.332;2023-02-22T09:08:08;11.60;76.42
68842;SHT35;55849;48.482;2.332;2023-02-22T09:11:09;11.64;76.48
68842;SHT35;55849;48.482;2.332;2023-02-22T09:14:11;11.64;76.44
68842;SHT35;55849;48.482;2.332;2023-02-22T09:17:13;11.69;76.30
68842;SHT35;55849;48.482;2.332;2023-02-22T09:20:16;11.70;76.31
68842;SHT35;55849;48.482;2.332;2023-02-22T09:23:20;11.71;76.23
68842;SHT35;55849;48.482;2.332;2023-02-22T09:26:21;11.73;76.02
68842;SHT35;55849;48.482;2.332;2023-02-22T09:29:25;11.77;76.08
68842;SHT35;55849;48.482;2.332;2023-02-22T09:32:27;11.80;76.02
68842;SHT35;55849;48.482;2.332;2023-02-22T09:35:29;11.84;75.90
68842;SHT35;55849;48.482;2.332;2023-02-22T09:38:32;11.87;75.53
68842;SHT35;55849;48.482;2.332;2023-02-22T09:41:39;11.88;75.45
68842;SHT35;55849;48.482;2.332;2023-02-22T09:44:46;11.92;75.27
68842;SHT35;55849;48.482;2.332;2023-02-22T09:47:52;11.98;75.25
68842;SHT35;55849;48.482;2.332;2023-02-22T09:50:58;11.98;75.08
68842;SHT35;55849;48.482;2.332;2023-02-22T09:54:08;11.97;74.90
68842;SHT35;55849;48.482;2.332;2023-02-22T09:57:17;11.98;75.09
68842;SHT35;55849;48.482;2.332;2023-02-22T10:00:23;11.97;74.87
68842;SHT35;55849;48.482;2.332;2023-02-22T10:03:33;11.98;75.12
68842;SHT35;55849;48.482;2.332;2023-02-22T10:06:38;11.95;74.95
68842;SHT35;55849;48.482;2.332;2023-02-22T10:09:46;11.99;74.96
68842;SHT35;55849;48.482;2.332;2023-02-22T10:12:58;11.99;74.88
68842;SHT35;55849;48.482;2.332;2023-02-22T10:16:05;12.04;74.99
68842;SHT35;55849;48.482;2.332;2023-02-22T10:19:20;12.05;74.73
68842;SHT35;55849;48.482;2.332;2023-02-22T10:22:45;12.08;74.64
68842;SHT35;55849;48.482;2.332;2023-02-22T10:25:53;12.08;74.36
68842;SHT35;55849;48.482;2.332;2023-02-22T10:29:00;12.06;74.52
68842;SHT35;55849;48.482;2.332;2023-02-22T10:32:03;12.14;74.50
68842;SHT35;55849;48.482;2.332;2023-02-22T10:35:15;12.14;74.18
68842;SHT35;55849;48.482;2.332;2023-02-22T10:38:20;12.15;74.17
68842;SHT35;55849;48.482;2.332;2023-02-22T10:41:27;12.15;74.29
68842;SHT35;55849;48.482;2.332;2023-02-22T10:44:30;12.16;74.16
68842;SHT35;55849;48.482;2.332;2023-02-22T10:47:32;12.16;74.04
68842;SHT35;55849;48.482;2.332;2023-02-22T10:50:37;12.18;74.16
68842;SHT35;55849;48.482;2.332;2023-02-22T10:53:40;12.21;74.05
68842;SHT35;55849;48.482;2.332;2023-02-22T10:56:47;12.22;74.17
68842;SHT35;55849;48.482;2.332;2023-02-22T10:59:49;12.26;74.20
68842;SHT35;55849;48.482;2.332;2023-02-22T11:02:53;12.30;73.86
68842;SHT35;55849;48.482;2.332;2023-02-22T11:06:16;12.32;73.80
68842;SHT35;55849;48.482;2.332;2023-02-22T11:09:20;12.33;73.83
68842;SHT35;55849;48.482;2.332;2023-02-22T11:12:31;12.34;73.88
68842;SHT35;55849;48.482;2.332;2023-02-22T11:15:33;12.40;73.80
68842;SHT35;55849;48.482;2.332;2023-02-22T11:18:35;12.40;73.63
68842;SHT35;55849;48.482;2.332;2023-02-22T11:21:37;12.44;73.70
68842;SHT35;55849;48.482;2.332;2023-02-22T11:24:45;12.44;73.60
68842;SHT35;55849;48.482;2.332;2023-02-22T11:27:48;12.43;73.62
68842;SHT35;55849;48.482;2.332;2023-02-22T11:30:51;12.44;73.51
68842;SHT35;55849;48.482;2.332;2023-02-22T11:33:54;12.44;73.74
68842;SHT35;55849;48.482;2.332;2023-02-22T11:37:14;12.46;73.55
68842;SHT35;55849;48.482;2.332;2023-02-22T11:40:19;12.42;73.59
68842;SHT35;55849;48.482;2.332;2023-02-22T11:43:23;12.43;73.47
68842;SHT35;55849;48.482;2.332;2023-02-22T11:46:27;12.40;73.55
68842;SHT35;55849;48.482;2.332;2023-02-22T11:49:33;12.42;73.58
68842;SHT35;55849;48.482;2.332;2023-02-22T11:52:41;12.39;73.66
68842;SHT35;55849;48.482;2.332;2023-02-22T11:55:54;12.39;73.56
68842;SHT35;55849;48.482;2.332;2023-02-22T11:59:10;12.46;73.43
68842;SHT35;55849;48.482;2.332;2023-02-22T12:02:28;12.44;73.50
68842;SHT35;55849;48.482;2.332;2023-02-22T12:09:09;12.47;73.71
68842;SHT35;55849;48.482;2.332;2023-02-22T12:12:20;12.44;73.79
68842;SHT35;55849;48.482;2.332;2023-02-22T12:15:28;12.43;73.74
68842;SHT35;55849;48.482;2.332;2023-02-22T12:18:37;12.44;73.90
68842;SHT35;55849;48.482;2.332;2023-02-22T12:21:42;12.43;74.02
68842;SHT35;55849;48.482;2.332;2023-02-22T12:24:48;12.44;73.88
68842;SHT35;55849;48.482;2.332;2023-02-22T12:27:54;12.44;74.13
68842;SHT35;55849;48.482;2.332;2023-02-22T12:31:07;12.46;74.24
68842;SHT35;55849;48.482;2.332;2023-02-22T12:34:18;12.47;74.17
68842;SHT35;55849;48.482;2.332;2023-02-22T12:37:29;12.43;74.21
68842;SHT35;55849;48.482;2.332;2023-02-22T12:40:40;12.43;74.39
68842;SHT35;55849;48.482;2.332;2023-02-22T12:43:49;12.44;74.15
68842;SHT35;55849;48.482;2.332;2023-02-22T12:46:55;12.42;74.02
68842;SHT35;55849;48.482;2.332;2023-02-22T12:50:02;12.42;74.12
68842;SHT35;55849;48.482;2.332;2023-02-22T12:53:12;12.43;73.64
68842;SHT35;55849;48.482;2.332;2023-02-22T12:56:21;12.43;73.47
68842;SHT35;55849;48.482;2.332;2023-02-22T12:59:28;12.42;73.48
68842;SHT35;55849;48.482;2.332;2023-02-22T13:02:37;12.39;73.54
68842;SHT35;55849;48.482;2.332;2023-02-22T13:05:48;12.39;73.54
68842;SHT35;55849;48.482;2.332;2023-02-22T13:09:02;12.37;73.40
68842;SHT35;55849;48.482;2.332;2023-02-22T13:12:09;12.36;73.26
68842;SHT35;55849;48.482;2.332;2023-02-22T13:15:18;12.36;73.39
68842;SHT35;55849;48.482;2.332;2023-02-22T13:18:27;12.43;73.30
68842;SHT35;55849;48.482;2.332;2023-02-22T13:21:40;12.46;73.26
68842;SHT35;55849;48.482;2.332;2023-02-22T13:24:55;12.46;73.06
68842;SHT35;55849;48.482;2.332;2023-02-22T13:28:02;12.47;72.87
68842;SHT35;55849;48.482;2.332;2023-02-22T13:31:28;12.47;72.73
68842;SHT35;55849;48.482;2.332;2023-02-22T13:34:55;12.49;72.34
68842;SHT35;55849;48.482;2.332;2023-02-22T13:38:22;12.50;72.28
68842;SHT35;55849;48.482;2.332;2023-02-22T13:41:50;12.47;71.89
68842;SHT35;55849;48.482;2.332;2023-02-22T13:51:50;12.49;71.33
68842;SHT35;55849;48.482;2.332;2023-02-22T13:54:58;12.46;71.24
68842;SHT35;55849;48.482;2.332;2023-02-22T13:58:03;12.43;71.54
68842;SHT35;55849;48.482;2.332;2023-02-22T14:01:05;12.40;71.91
68842;SHT35;55849;48.482;2.332;2023-02-22T14:07:50;12.43;72.82
68842;SHT35;55849;48.482;2.332;2023-02-22T14:10:53;12.46;72.93
68842;SHT35;55849;48.482;2.332;2023-02-22T14:14:17;12.51;73.26
68842;SHT35;55849;48.482;2.332;2023-02-22T14:17:23;12.60;72.54
68842;SHT35;55849;48.482;2.332;2023-02-22T14:20:29;12.63;72.07
68842;SHT35;55849;48.482;2.332;2023-02-22T14:23:37;12.65;72.60
68842;SHT35;55849;48.482;2.332;2023-02-22T14:26:53;12.69;72.04
68842;SHT35;55849;48.482;2.332;2023-02-22T14:29:58;12.73;72.08
68842;SHT35;55849;48.482;2.332;2023-02-22T14:33:01;12.77;71.53
68842;SHT35;55849;48.482;2.332;2023-02-22T14:36:03;12.83;71.88
68842;SHT35;55849;48.482;2.332;2023-02-22T14:39:29;12.87;71.95
68842;SHT35;55849;48.482;2.332;2023-02-22T14:42:33;12.91;71.51
68842;SHT35;55849;48.482;2.332;2023-02-22T14:45:40;12.98;71.61
68842;SHT35;55849;48.482;2.332;2023-02-22T14:48:46;12.99;71.25
68842;SHT35;55849;48.482;2.332;2023-02-22T14:51:53;13.08;70.91
68842;SHT35;55849;48.482;2.332;2023-02-22T14:55:05;13.12;70.45
68842;SHT35;55849;48.482;2.332;2023-02-22T14:58:11;13.19;70.76
68842;SHT35;55849;48.482;2.332;2023-02-22T15:01:22;13.27;70.57
68842;SHT35;55849;48.482;2.332;2023-02-22T15:04:26;13.42;69.55
68842;SHT35;55849;48.482;2.332;2023-02-22T15:07:31;13.44;69.47
68842;SHT35;55849;48.482;2.332;2023-02-22T15:10:41;13.43;69.38
68842;SHT35;55849;48.482;2.332;2023-02-22T15:13:48;13.44;69.27
68842;SHT35;55849;48.482;2.332;2023-02-22T15:16:52;13.44;69.15
68842;SHT35;55849;48.482;2.332;2023-02-22T15:19:55;13.43;68.75
68842;SHT35;55849;48.482;2.332;2023-02-22T15:22:57;13.42;68.85
68842;SHT35;55849;48.482;2.332;2023-02-22T15:26:02;13.40;68.76
68842;SHT35;55849;48.482;2.332;2023-02-22T15:29:09;13.39;68.65
68842;SHT35;55849;48.482;2.332;2023-02-22T15:32:17;13.39;68.84
68842;SHT35;55849;48.482;2.332;2023-02-22T15:35:26;13.37;68.88
68842;SHT35;55849;48.482;2.332;2023-02-22T15:38:29;13.37;68.81
68842;SHT35;55849;48.482;2.332;2023-02-22T15:41:33;13.37;68.45
68842;SHT35;55849;48.482;2.332;2023-02-22T15:44:37;13.36;68.62
68842;SHT35;55849;48.482;2.332;2023-02-22T15:47:39;13.29;68.72
68842;SHT35;55849;48.482;2.332;2023-02-22T15:50:58;13.29;68.54
68842;SHT35;55849;48.482;2.332;2023-02-22T15:54:03;13.24;68.67
68842;SHT35;55849;48.482;2.332;2023-02-22T15:57:13;13.23;68.64
68842;SHT35;55849;48.482;2.332;2023-02-22T16:00:21;13.20;68.67
68842;SHT35;55849;48.482;2.332;2023-02-22T16:03:23;13.19;68.71
68842;SHT35;55849;48.482;2.332;2023-02-22T16:06:30;13.15;68.83
68842;SHT35;55849;48.482;2.332;2023-02-22T16:09:34;13.13;68.85
68842;SHT35;55849;48.482;2.332;2023-02-22T16:12:37;13.08;69.04
68842;SHT35;55849;48.482;2.332;2023-02-22T16:15:39;13.05;69.32
68842;SHT35;55849;48.482;2.332;2023-02-22T16:18:40;13.05;69.50
68842;SHT35;55849;48.482;2.332;2023-02-22T16:21:53;13.02;69.92
68842;SHT35;55849;48.482;2.332;2023-02-22T16:25:12;12.95;70.00
68842;SHT35;55849;48.482;2.332;2023-02-22T16:28:25;12.96;70.24
68842;SHT35;55849;48.482;2.332;2023-02-22T16:31:31;12.94;70.33
68842;SHT35;55849;48.482;2.332;2023-02-22T16:34:33;12.95;70.62
68842;SHT35;55849;48.482;2.332;2023-02-22T16:37:34;12.88;70.62
68842;SHT35;55849;48.482;2.332;2023-02-22T19:30:19;12.51;72.82
68842;SHT35;55849;48.482;2.332;2023-02-22T19:33:21;12.50;72.89
68842;SHT35;55849;48.482;2.332;2023-02-22T19:36:25;12.49;72.96
68842;SHT35;55849;48.482;2.332;2023-02-22T19:39:27;12.50;72.96
68842;SHT35;55849;48.482;2.332;2023-02-22T19:42:29;12.49;72.97
68842;SHT35;55849;48.482;2.332;2023-02-22T19:45:32;12.49;73.01
68842;SHT35;55849;48.482;2.332;2023-02-22T19:48:34;12.50;73.06
68842;SHT35;55849;48.482;2.332;2023-02-22T19:51:35;12.47;72.99
68842;SHT35;55849;48.482;2.332;2023-02-22T19:54:37;12.47;72.95
68842;SHT35;55849;48.482;2.332;2023-02-22T19:57:39;12.47;72.92
68842;SHT35;55849;48.482;2.332;2023-02-22T20:00:42;12.46;72.97
68842;SHT35;55849;48.482;2.332;2023-02-22T20:03:44;12.46;72.91
68842;SHT35;55849;48.482;2.332;2023-02-22T20:06:47;12.43;72.74
68842;SHT35;55849;48.482;2.332;2023-02-22T20:09:49;12.43;72.86
68842;SHT35;55849;48.482;2.332;2023-02-22T20:12:51;12.42;72.92
68842;SHT35;55849;48.482;2.332;2023-02-22T20:15:54;12.42;72.93
68842;SHT35;55849;48.482;2.332;2023-02-22T20:18:56;12.40;73.07
68842;SHT35;55849;48.482;2.332;2023-02-22T20:21:57;12.39;72.98
68842;SHT35;55849;48.482;2.332;2023-02-22T20:24:59;12.37;73.12
68842;SHT35;55849;48.482;2.332;2023-02-22T20:28:01;12.36;72.96
68842;SHT35;55849;48.482;2.332;2023-02-22T20:31:08;12.37;73.05
68842;SHT35;55849;48.482;2.332;2023-02-22T20:34:12;12.37;72.85
68842;SHT35;55849;48.482;2.332;2023-02-22T20:37:14;12.36;73.03
68842;SHT35;55849;48.482;2.332;2023-02-22T20:40:17;12.36;73.12
68842;SHT35;55849;48.482;2.332;2023-02-22T20:43:19;12.33;73.51
68842;SHT35;55849;48.482;2.332;2023-02-22T20:46:23;12.34;73.44
68842;SHT35;55849;48.482;2.332;2023-02-22T20:49:24;12.34;73.59
68842;SHT35;55849;48.482;2.332;2023-02-22T20:52:26;12.33;73.71
68842;SHT35;55849;48.482;2.332;2023-02-22T20:55:28;12.33;73.71
68842;SHT35;55849;48.482;2.332;2023-02-22T20:58:30;12.33;73.80
68842;SHT35;55849;48.482;2.332;2023-02-22T21:01:33;12.32;73.84
68842;SHT35;55849;48.482;2.332;2023-02-22T21:04:35;12.33;73.77
68842;SHT35;55849;48.482;2.332;2023-02-22T21:07:36;12.33;73.84
68842;SHT35;55849;48.482;2.332;2023-02-22T21:10:41;12.30;74.00
68842;SHT35;55849;48.482;2.332;2023-02-22T21:13:43;12.30;74.22
68842;SHT35;55849;48.482;2.332;2023-02-22T21:16:48;12.32;74.31
68842;SHT35;55849;48.482;2.332;2023-02-22T21:19:50;12.30;73.99
68842;SHT35;55849;48.482;2.332;2023-02-22T21:22:52;12.30;74.38
68842;SHT35;55849;48.482;2.332;2023-02-22T21:25:54;12.26;74.69
68842;SHT35;55849;48.482;2.332;2023-02-22T21:28:58;12.29;74.85
68842;SHT35;55849;48.482;2.332;2023-02-22T21:32:02;12.28;74.89
68842;SHT35;55849;48.482;2.332;2023-02-22T21:35:04;12.24;74.82
68842;SHT35;55849;48.482;2.332;2023-02-22T21:38:06;12.25;74.86
68842;SHT35;55849;48.482;2.332;2023-02-22T21:41:09;12.22;75.11
68842;SHT35;55849;48.482;2.332;2023-02-22T21:44:11;12.24;75.21
68842;SHT35;55849;48.482;2.332;2023-02-22T21:47:14;12.22;75.39
68842;SHT35;55849;48.482;2.332;2023-02-22T21:50:17;12.22;75.21
68842;SHT35;55849;48.482;2.332;2023-02-22T21:53:19;12.18;75.33
68842;SHT35;55849;48.482;2.332;2023-02-22T21:56:23;12.19;75.61
68842;SHT35;55849;48.482;2.332;2023-02-22T21:59:27;12.21;75.47
68842;SHT35;55849;48.482;2.332;2023-02-22T22:02:30;12.18;75.53
68842;SHT35;55849;48.482;2.332;2023-02-22T22:05:31;12.18;75.36
68842;SHT35;55849;48.482;2.332;2023-02-22T22:08:33;12.18;75.29
68842;SHT35;55849;48.482;2.332;2023-02-22T22:11:39;12.16;75.48
68842;SHT35;55849;48.482;2.332;2023-02-22T22:14:40;12.14;75.69
68842;SHT35;55849;48.482;2.332;2023-02-22T22:17:46;12.15;75.77
68842;SHT35;55849;48.482;2.332;2023-02-22T22:20:47;12.12;76.01
68842;SHT35;55849;48.482;2.332;2023-02-22T22:23:52;12.12;75.59
68842;SHT35;55849;48.482;2.332;2023-02-22T22:26:55;12.14;75.62
68842;SHT35;55849;48.482;2.332;2023-02-22T22:30:03;12.06;75.42
68842;SHT35;55849;48.482;2.332;2023-02-22T22:33:07;12.09;75.70
68842;SHT35;55849;48.482;2.332;2023-02-22T22:36:13;12.06;75.40
68842;SHT35;55849;48.482;2.332;2023-02-22T22:39:15;12.02;75.49
68842;SHT35;55849;48.482;2.332;2023-02-22T22:42:21;11.99;75.57
68842;SHT35;55849;48.482;2.332;2023-02-22T22:45:23;11.98;75.36
68842;SHT35;55849;48.482;2.332;2023-02-22T22:48:27;11.94;75.42
68842;SHT35;55849;48.482;2.332;2023-02-22T22:51:30;11.90;75.05
68842;SHT35;55849;48.482;2.332;2023-02-22T22:54:32;11.87;75.46
68842;SHT35;55849;48.482;2.332;2023-02-22T22:57:35;11.85;75.30
68842;SHT35;55849;48.482;2.332;2023-02-22T23:00:36;11.88;75.50
